Time;durP1;ratioP1;P1;durP2;ratioP2;P2;SDS_P1;SDS_P2;PMS_P1;PMS_P2;Temp;Humidity;BMP_temperature;BMP_pressure;BME280_temperature;BME280_humidity;BME280_pressure;Samples;Min_cycle;Max_cycle;Signal;HPM_P1;HPM_P2
2021/10/01 00:01:43;;;;;;;13.95;3.10;;;;;;;;;;4997003;28;20034;-67
2021/10/01 00:04:09;;;;;;;13.52;2.35;;;;;;;;;;4991514;28;20023;-67
2021/10/01 00:06:35;;;;;;;13.18;3.03;;;;;;;;;;4990209;28;20430;-67
2021/10/01 00:09:01;;;;;;;11.07;2.55;;;;;;;;;;4992530;28;20533;-67
2021/10/01 00:11:27;;;;;;;6.68;2.03;;;;;;;;;;5000582;28;20503;-67
2021/10/01 00:13:53;;;;;;;7.55;2.38;;;;;;;;;;4992830;28;20395;-67
2021/10/01 00:16:19;;;;;;;6.68;2.33;;;;;;;;;;4984432;28;20042;-67
2021/10/01 00:18:46;;;;;;;7.07;2.03;;;;;;;;;;4990470;28;20041;-67
2021/10/01 00:21:12;;;;;;;8.13;2.05;;;;;;;;;;4990638;28;20026;-67
2021/10/01 00:23:38;;;;;;;10.23;2.25;;;;;;;;;;4990327;28;20030;-67
2021/10/01 00:26:04;;;;;;;8.38;2.72;;;;;;;;;;4990813;28;20076;-67
2021/10/01 00:28:30;;;;;;;7.88;2.10;;;;;;;;;;4989759;28;20061;-67
2021/10/01 00:30:57;;;;;;;10.25;2.92;;;;;;;;;;5005089;28;20030;-67
2021/10/01 00:33:23;;;;;;;8.73;2.00;;;;;;;;;;4996099;28;20061;-67
2021/10/01 00:35:49;;;;;;;9.98;2.58;;;;;;;;;;4993986;28;20042;-67
2021/10/01 00:38:15;;;;;;;9.77;2.28;;;;;;;;;;4989174;28;20029;-67
2021/10/01 00:40:41;;;;;;;8.50;2.03;;;;;;;;;;4987816;28;20031;-67
2021/10/01 00:43:07;;;;;;;10.52;2.40;;;;;;;;;;4979859;28;20034;-67
2021/10/01 00:45:33;;;;;;;7.05;1.80;;;;;;;;;;4981077;28;20029;-67
2021/10/01 00:47:59;;;;;;;11.10;2.60;;;;;;;;;;4991627;28;20047;-67
2021/10/01 00:50:26;;;;;;;8.55;1.65;;;;;;;;;;4987158;28;20026;-67
2021/10/01 00:52:52;;;;;;;11.05;2.45;;;;;;;;;;4981096;28;20059;-67
2021/10/01 00:55:18;;;;;;;9.55;2.05;;;;;;;;;;4991842;28;20038;-66
2021/10/01 00:57:44;;;;;;;8.45;2.20;;;;;;;;;;4991429;28;20089;-67
2021/10/01 01:00:24;;;;;;;15.07;2.58;;;;;;;;;;4991123;28;20022;-67
2021/10/01 01:02:50;;;;;;;11.77;2.80;;;;;;;;;;4991740;28;20027;-67
2021/10/01 01:05:17;;;;;;;7.75;2.35;;;;;;;;;;4979582;28;20038;-67
2021/10/01 01:07:50;;;;;;;6.22;1.92;;;;;;;;;;4990591;28;20050;-67
2021/10/01 01:10:35;;;;;;;5.80;1.65;;;;;;;;;;4988284;28;20027;-67
2021/10/01 01:13:07;;;;;;;10.43;2.08;;;;;;;;;;4989688;28;20023;-67
2021/10/01 01:15:35;;;;;;;9.38;2.22;;;;;;;;;;4988843;28;20425;-67
2021/10/01 01:18:03;;;;;;;6.05;1.70;;;;;;;;;;4992942;28;20026;-67
2021/10/01 01:20:35;;;;;;;9.18;2.45;;;;;;;;;;4980433;28;20026;-67
2021/10/01 01:23:01;;;;;;;;;;;;;;;;;;4990984;28;20065;-66
2021/10/01 01:25:46;;;;;;;9.98;1.90;;;;;;;;;;4988933;28;19953;-67
2021/10/01 01:28:24;;;;;;;11.38;2.05;;;;;;;;;;4984210;28;20042;-67
2021/10/01 01:30:51;;;;;;;10.15;2.15;;;;;;;;;;4985259;28;20113;-67
2021/10/01 01:33:21;;;;;;;8.85;2.35;;;;;;;;;;4991613;28;20031;-66
2021/10/01 01:35:47;;;;;;;9.10;1.92;;;;;;;;;;4985780;28;20030;-67
2021/10/01 01:38:19;;;;;;;10.32;1.70;;;;;;;;;;4999556;28;20034;-67
2021/10/01 01:40:45;;;;;;;;;;;;;;;;;;4992773;28;20118;-67
2021/10/01 01:43:12;;;;;;;10.68;2.35;;;;;;;;;;4986831;28;20385;-67
2021/10/01 01:45:39;;;;;;;9.20;3.33;;;;;;;;;;4989465;28;20512;-67
2021/10/01 01:48:06;;;;;;;14.30;3.05;;;;;;;;;;4990217;28;20030;-67
2021/10/01 01:50:33;;;;;;;8.55;1.70;;;;;;;;;;4992434;28;20022;-67
2021/10/01 01:53:00;;;;;;;10.05;2.53;;;;;;;;;;4986233;28;20057;-67
2021/10/01 01:55:26;;;;;;;6.65;1.70;;;;;;;;;;4981667;28;20403;-67
2021/10/01 01:57:52;;;;;;;8.40;1.80;;;;;;;;;;4989937;28;20034;-67
2021/10/01 02:00:19;;;;;;;7.47;2.03;;;;;;;;;;4990549;28;20513;-67
2021/10/01 02:02:47;;;;;;;8.02;1.50;;;;;;;;;;4995563;28;20445;-67
2021/10/01 02:05:13;;;;;;;7.90;2.10;;;;;;;;;;4988139;28;20752;-67
2021/10/01 02:07:40;;;;;;;9.30;2.28;;;;;;;;;;4990729;28;20066;-67
2021/10/01 02:10:07;;;;;;;6.90;1.92;;;;;;;;;;4991097;28;20113;-67
2021/10/01 02:12:34;;;;;;;7.32;1.80;;;;;;;;;;4981945;28;20039;-67
2021/10/01 02:15:01;;;;;;;6.65;2.42;;;;;;;;;;4983986;28;20202;-67
2021/10/01 02:17:28;;;;;;;5.53;1.55;;;;;;;;;;4987457;28;20049;-67
2021/10/01 02:19:56;;;;;;;10.23;3.35;;;;;;;;;;4985628;28;20022;-67
2021/10/01 02:22:22;;;;;;;9.15;2.20;;;;;;;;;;4994760;28;20042;-67
2021/10/01 02:24:49;;;;;;;14.48;3.75;;;;;;;;;;4981976;28;20069;-67
2021/10/01 02:27:34;;;;;;;8.02;1.98;;;;;;;;;;4990233;28;20053;-67
2021/10/01 02:30:08;;;;;;;9.60;2.28;;;;;;;;;;4982535;28;20606;-67
2021/10/01 02:32:37;;;;;;;12.15;2.00;;;;;;;;;;4995017;28;20422;-67
2021/10/01 02:35:04;;;;;;;9.38;2.50;;;;;;;;;;4983582;28;20044;-67
2021/10/01 02:37:31;;;;;;;9.30;2.63;;;;;;;;;;4985831;28;20033;-67
2021/10/01 02:39:57;;;;;;;7.30;2.03;;;;;;;;;;4981424;28;20030;-67
2021/10/01 02:42:24;;;;;;;10.57;2.28;;;;;;;;;;4988467;28;20624;-67
2021/10/01 02:44:51;;;;;;;12.77;1.95;;;;;;;;;;4985092;28;20045;-67
2021/10/01 02:47:18;;;;;;;8.55;2.40;;;;;;;;;;4989835;28;20022;-67
2021/10/01 02:49:45;;;;;;;9.68;2.00;;;;;;;;;;4995150;28;20533;-67
2021/10/01 02:52:24;;;;;;;24.63;3.03;;;;;;;;;;4985913;28;20018;-68
2021/10/01 02:54:55;;;;;;;8.48;2.15;;;;;;;;;;4982397;28;20113;-67
2021/10/01 02:57:28;;;;;;;7.95;2.25;;;;;;;;;;4991620;28;20054;-67
2021/10/01 02:59:56;;;;;;;8.27;2.22;;;;;;;;;;4986736;28;20030;-67
2021/10/01 03:02:22;;;;;;;13.27;2.15;;;;;;;;;;4997744;28;20037;-67
2021/10/01 03:04:51;;;;;;;10.07;2.55;;;;;;;;;;4987532;28;20027;-67
2021/10/01 03:07:17;;;;;;;7.88;2.10;;;;;;;;;;4993508;28;20113;-67
2021/10/01 03:09:45;;;;;;;7.60;3.05;;;;;;;;;;4982919;28;20514;-67
2021/10/01 03:12:12;;;;;;;12.20;1.98;;;;;;;;;;4979781;28;20049;-67
2021/10/01 03:14:38;;;;;;;12.75;3.10;;;;;;;;;;4984456;28;20093;-67
2021/10/01 03:17:05;;;;;;;7.85;1.90;;;;;;;;;;4978719;28;20042;-67
2021/10/01 03:19:31;;;;;;;11.38;2.45;;;;;;;;;;4989012;28;20117;-67
2021/10/01 03:21:57;;;;;;;13.55;3.17;;;;;;;;;;5001414;28;20026;-67
2021/10/01 03:24:24;;;;;;;7.78;1.85;;;;;;;;;;4984471;28;20019;-67
2021/10/01 03:26:53;;;;;;;9.23;2.13;;;;;;;;;;4989451;28;20074;-67
2021/10/01 03:29:19;;;;;;;7.03;2.63;;;;;;;;;;4975938;28;20019;-67
2021/10/01 03:31:47;;;;;;;8.10;2.30;;;;;;;;;;4988545;28;20046;-67
2021/10/01 03:34:13;;;;;;;11.30;2.70;;;;;;;;;;4987219;28;20140;-67
2021/10/01 03:36:39;;;;;;;6.78;1.73;;;;;;;;;;4992013;28;20041;-67
2021/10/01 03:39:05;;;;;;;6.38;2.47;;;;;;;;;;4986538;28;20030;-67
2021/10/01 03:41:32;;;;;;;11.38;2.63;;;;;;;;;;4984833;28;20031;-67
2021/10/01 03:43:58;;;;;;;7.43;1.98;;;;;;;;;;4988458;28;20041;-67
2021/10/01 03:46:24;;;;;;;10.00;2.00;;;;;;;;;;4990811;28;20030;-67
2021/10/01 03:48:50;;;;;;;6.97;1.88;;;;;;;;;;4985327;28;20521;-69
2021/10/01 03:51:16;;;;;;;9.15;2.10;;;;;;;;;;4989964;28;20442;-67
2021/10/01 03:53:43;;;;;;;9.02;2.03;;;;;;;;;;4985759;28;20068;-67
2021/10/01 03:56:16;;;;;;;8.45;2.03;;;;;;;;;;4980770;28;20084;-67
2021/10/01 03:58:43;;;;;;;10.02;1.90;;;;;;;;;;4982679;28;20822;-67
2021/10/01 04:01:09;;;;;;;6.50;1.98;;;;;;;;;;4985608;28;20526;-67
2021/10/01 04:03:35;;;;;;;13.43;3.53;;;;;;;;;;4994544;28;20026;-67
2021/10/01 04:06:01;;;;;;;11.32;2.08;;;;;;;;;;4977592;28;20031;-68
2021/10/01 04:08:27;;;;;;;9.13;2.00;;;;;;;;;;4989141;28;20026;-67
2021/10/01 04:10:53;;;;;;;9.68;1.65;;;;;;;;;;4983785;28;20041;-67
2021/10/01 04:13:19;;;;;;;9.32;2.00;;;;;;;;;;4980034;28;20026;-67
2021/10/01 04:15:46;;;;;;;6.57;2.25;;;;;;;;;;4986255;28;20034;-67
2021/10/01 04:18:12;;;;;;;9.80;2.17;;;;;;;;;;4977963;28;20031;-67
2021/10/01 04:20:40;;;;;;;8.60;2.00;;;;;;;;;;4983281;28;20030;-67
2021/10/01 04:23:06;;;;;;;12.88;2.28;;;;;;;;;;4984991;28;20026;-67
2021/10/01 04:25:32;;;;;;;10.77;2.35;;;;;;;;;;4976331;28;20019;-66
2021/10/01 04:27:59;;;;;;;8.43;2.40;;;;;;;;;;4986802;28;20054;-67
2021/10/01 04:30:25;;;;;;;9.30;2.50;;;;;;;;;;4988012;28;20030;-67
2021/10/01 04:33:02;;;;;;;7.00;2.22;;;;;;;;;;4991532;28;20564;-67
2021/10/01 04:35:28;;;;;;;6.35;2.30;;;;;;;;;;4984126;28;20030;-67
2021/10/01 04:37:54;;;;;;;9.25;2.10;;;;;;;;;;4992881;28;20494;-68
2021/10/01 04:40:20;;;;;;;7.40;2.03;;;;;;;;;;4998314;28;20408;-67
2021/10/01 04:42:46;;;;;;;8.27;2.13;;;;;;;;;;4984232;28;20030;-67
2021/10/01 04:45:12;;;;;;;10.52;2.58;;;;;;;;;;4993911;28;20034;-67
2021/10/01 04:47:39;;;;;;;7.93;2.00;;;;;;;;;;4991792;28;20034;-67
2021/10/01 04:50:06;;;;;;;9.48;2.17;;;;;;;;;;4989348;28;20502;-67
2021/10/01 04:52:32;;;;;;;11.38;2.38;;;;;;;;;;4991218;28;20060;-67
2021/10/01 04:54:59;;;;;;;7.93;2.85;;;;;;;;;;4998072;28;20029;-67
2021/10/01 04:57:25;;;;;;;7.55;2.40;;;;;;;;;;4990496;28;20423;-67
2021/10/01 04:59:51;;;;;;;13.70;2.53;;;;;;;;;;4988618;28;20095;-67
2021/10/01 05:02:17;;;;;;;16.58;3.20;;;;;;;;;;5003515;28;20522;-67
2021/10/01 05:04:43;;;;;;;10.15;2.42;;;;;;;;;;4987569;28;20030;-67
2021/10/01 05:07:09;;;;;;;7.90;2.47;;;;;;;;;;4987702;28;20108;-67
2021/10/01 05:09:35;;;;;;;6.15;2.13;;;;;;;;;;4995779;28;20507;-67
2021/10/01 05:12:01;;;;;;;8.70;2.30;;;;;;;;;;4995171;28;20069;-67
2021/10/01 05:14:27;;;;;;;7.68;2.22;;;;;;;;;;4983184;28;20093;-67
2021/10/01 05:16:53;;;;;;;11.07;2.45;;;;;;;;;;4985891;28;20034;-67
2021/10/01 05:19:19;;;;;;;8.00;2.67;;;;;;;;;;4988789;28;20116;-67
2021/10/01 05:21:45;;;;;;;9.05;2.22;;;;;;;;;;4987250;28;20560;-67
2021/10/01 05:24:14;;;;;;;8.60;2.38;;;;;;;;;;4980639;28;20401;-68
2021/10/01 05:26:41;;;;;;;6.47;1.70;;;;;;;;;;5067672;23;20711;-68
2021/10/01 05:29:07;;;;;;;9.18;2.33;;;;;;;;;;4975761;28;20102;-68
2021/10/01 05:31:33;;;;;;;12.27;2.33;;;;;;;;;;4974663;28;20023;-68
2021/10/01 05:33:59;;;;;;;9.07;2.30;;;;;;;;;;4972455;28;20031;-68
2021/10/01 05:36:25;;;;;;;9.60;2.38;;;;;;;;;;4976370;28;20045;-67
2021/10/01 05:38:51;;;;;;;7.70;2.03;;;;;;;;;;4983487;28;20148;-68
2021/10/01 05:41:19;;;;;;;12.40;2.53;;;;;;;;;;4972434;28;20027;-68
2021/10/01 05:43:45;;;;;;;13.13;2.45;;;;;;;;;;4976307;28;20194;-68
2021/10/01 05:46:13;;;;;;;5.45;2.00;;;;;;;;;;4977170;28;20026;-69
2021/10/01 05:48:42;;;;;;;7.00;2.03;;;;;;;;;;4968353;28;20048;-68
2021/10/01 05:51:10;;;;;;;12.10;3.17;;;;;;;;;;4968842;28;20035;-68
2021/10/01 05:56:08;;;;;;;8.57;2.20;;;;;;;;;;4977210;28;20059;-68
2021/10/01 05:58:38;;;;;;;9.98;2.58;;;;;;;;;;4973205;28;20094;-68
2021/10/01 06:01:04;;;;;;;9.43;2.40;;;;;;;;;;4967020;28;20125;-68
2021/10/01 06:03:30;;;;;;;11.00;2.88;;;;;;;;;;4972567;28;20028;-68
2021/10/01 06:05:56;;;;;;;8.95;2.33;;;;;;;;;;4977170;28;20031;-67
2021/10/01 06:08:22;;;;;;;7.30;2.45;;;;;;;;;;4971663;28;20026;-68
2021/10/01 06:10:48;;;;;;;8.98;2.55;;;;;;;;;;4969960;28;20035;-67
2021/10/01 06:13:15;;;;;;;16.85;2.63;;;;;;;;;;4965971;28;20030;-68
2021/10/01 06:15:41;;;;;;;11.15;2.70;;;;;;;;;;4970946;28;20041;-67
2021/10/01 06:18:07;;;;;;;8.90;3.47;;;;;;;;;;4972246;28;20093;-68
2021/10/01 06:20:33;;;;;;;6.68;2.65;;;;;;;;;;4971975;28;20015;-67
2021/10/01 06:22:59;;;;;;;11.00;3.10;;;;;;;;;;4983883;28;20053;-68
2021/10/01 06:25:25;;;;;;;10.45;2.17;;;;;;;;;;4971027;28;20074;-68
2021/10/01 06:27:51;;;;;;;8.30;2.40;;;;;;;;;;4971685;28;20027;-68
2021/10/01 06:30:18;;;;;;;8.18;2.97;;;;;;;;;;4970424;28;20031;-68
2021/10/01 06:32:45;;;;;;;11.65;3.88;;;;;;;;;;4970795;28;20031;-68
2021/10/01 06:35:11;;;;;;;9.43;3.40;;;;;;;;;;4977124;28;20097;-68
2021/10/01 06:37:37;;;;;;;15.20;2.72;;;;;;;;;;4975003;28;20087;-68
2021/10/01 06:40:04;;;;;;;10.13;2.58;;;;;;;;;;4964598;28;20089;-68
2021/10/01 06:42:31;;;;;;;12.55;2.70;;;;;;;;;;4968194;28;20037;-68
2021/10/01 06:45:01;;;;;;;7.80;2.50;;;;;;;;;;4970611;28;20403;-69
2021/10/01 07:36:38;;;;;;;16.73;2.78;;;;;;;;;;4976083;28;20473;-68
2021/10/01 07:39:25;;;;;;;10.65;2.38;;;;;;;;;;4966359;28;20054;-69
2021/10/01 08:20:42;;;;;;;20.13;2.78;;;;;;;;;;4966145;28;20199;-68
2021/10/01 08:23:08;;;;;;;8.73;2.65;;;;;;;;;;4974718;28;20035;-69
2021/10/01 08:25:34;;;;;;;10.20;2.50;;;;;;;;;;4973067;28;20414;-69
2021/10/01 08:28:01;;;;;;;8.18;2.40;;;;;;;;;;4973704;28;20030;-70
2021/10/01 08:30:27;;;;;;;14.23;3.13;;;;;;;;;;4970974;28;20030;-69
2021/10/01 08:32:53;;;;;;;13.45;2.63;;;;;;;;;;4972676;28;20105;-68
2021/10/01 08:35:24;;;;;;;9.18;2.55;;;;;;;;;;4976694;28;20489;-71
2021/10/01 08:37:50;;;;;;;9.38;2.63;;;;;;;;;;4980683;28;20496;-68
2021/10/01 08:40:16;;;;;;;7.82;2.50;;;;;;;;;;4975364;28;20110;-68
2021/10/01 08:42:43;;;;;;;9.30;2.30;;;;;;;;;;4978210;28;20042;-68
2021/10/01 08:45:11;;;;;;;7.70;2.65;;;;;;;;;;4978386;28;20061;-69
2021/10/01 08:47:38;;;;;;;10.70;2.67;;;;;;;;;;4968979;28;20121;-68
2021/10/01 08:50:04;;;;;;;8.93;2.47;;;;;;;;;;4970221;28;20062;-68
2021/10/01 08:52:30;;;;;;;10.68;2.78;;;;;;;;;;4973649;28;20189;-69
2021/10/01 08:54:56;;;;;;;9.30;2.33;;;;;;;;;;4970413;28;20033;-68
2021/10/01 08:57:23;;;;;;;8.07;2.50;;;;;;;;;;4965079;28;20030;-68
2021/10/01 08:59:49;;;;;;;11.15;2.42;;;;;;;;;;4973381;28;20031;-69
2021/10/01 09:02:15;;;;;;;9.07;2.85;;;;;;;;;;4975861;28;20085;-68
2021/10/01 09:04:41;;;;;;;10.10;2.42;;;;;;;;;;4969541;28;20043;-68
2021/10/01 09:07:07;;;;;;;7.00;2.22;;;;;;;;;;4970746;28;20042;-69
2021/10/01 09:09:37;;;;;;;8.85;2.90;;;;;;;;;;4973431;28;20453;-69
2021/10/01 09:12:03;;;;;;;9.82;2.28;;;;;;;;;;4971650;28;20041;-69
2021/10/01 09:14:29;;;;;;;10.25;2.80;;;;;;;;;;4978284;28;20601;-69
2021/10/01 09:16:56;;;;;;;14.35;3.08;;;;;;;;;;4972634;28;20038;-70
2021/10/01 09:19:22;;;;;;;12.30;3.13;;;;;;;;;;4969397;28;20370;-68
2021/10/01 09:21:50;;;;;;;11.13;3.00;;;;;;;;;;4979553;28;20524;-70
2021/10/01 09:24:17;;;;;;;11.40;3.40;;;;;;;;;;4969476;28;20207;-68
2021/10/01 09:26:53;;;;;;;10.10;2.92;;;;;;;;;;4971209;28;20413;-69
2021/10/01 09:29:27;;;;;;;14.63;3.50;;;;;;;;;;4979939;28;20073;-68
2021/10/01 09:31:53;;;;;;;12.00;3.45;;;;;;;;;;4972574;28;20062;-69
2021/10/01 09:34:22;;;;;;;7.88;2.63;;;;;;;;;;4966485;28;20023;-69
2021/10/01 09:36:58;;;;;;;8.63;2.85;;;;;;;;;;4987610;28;20066;-69
2021/10/01 09:39:25;;;;;;;9.05;2.75;;;;;;;;;;4980191;28;20151;-68
2021/10/01 09:41:51;;;;;;;9.48;2.70;;;;;;;;;;4972824;28;20501;-69
2021/10/01 09:44:19;;;;;;;7.32;3.05;;;;;;;;;;4962752;28;20105;-69
2021/10/01 09:46:50;;;;;;;11.30;3.60;;;;;;;;;;4971088;28;20027;-71
2021/10/01 09:49:17;;;;;;;7.95;3.30;;;;;;;;;;4987056;28;20401;-69
2021/10/01 09:51:48;;;;;;;14.50;4.75;;;;;;;;;;4971864;28;20075;-69
2021/10/01 09:54:15;;;;;;;15.60;4.07;;;;;;;;;;4971157;28;20040;-69
2021/10/01 09:56:42;;;;;;;10.65;3.40;;;;;;;;;;4985603;28;20026;-69
2021/10/01 09:59:11;;;;;;;11.20;3.25;;;;;;;;;;4979081;28;20085;-70
2021/10/01 10:01:57;;;;;;;12.20;3.72;;;;;;;;;;4976623;28;20105;-70
2021/10/01 10:04:23;;;;;;;11.18;3.85;;;;;;;;;;4984473;28;20267;-69
2021/10/01 10:06:49;;;;;;;9.43;3.42;;;;;;;;;;4971440;28;20441;-69
2021/10/01 10:09:15;;;;;;;11.07;3.15;;;;;;;;;;4971830;28;20102;-68
2021/10/01 10:11:42;;;;;;;15.88;3.63;;;;;;;;;;4972109;28;20124;-71
2021/10/01 10:14:09;;;;;;;11.35;3.70;;;;;;;;;;4961576;28;20023;-69
2021/10/01 10:16:35;;;;;;;14.25;3.75;;;;;;;;;;4971491;28;20370;-68
2021/10/01 10:19:07;;;;;;;11.48;3.30;;;;;;;;;;4962456;28;20039;-70
2021/10/01 10:21:33;;;;;;;12.90;3.30;;;;;;;;;;4971117;28;20057;-68
2021/10/01 10:23:59;;;;;;;14.02;3.65;;;;;;;;;;4970847;28;20401;-69
2021/10/01 10:26:26;;;;;;;10.65;3.40;;;;;;;;;;4969828;28;20062;-68
2021/10/01 10:28:53;;;;;;;20.80;4.03;;;;;;;;;;4971352;28;20392;-68
2021/10/01 10:31:19;;;;;;;12.98;3.00;;;;;;;;;;4974873;28;20493;-70
2021/10/01 10:33:47;;;;;;;12.20;2.95;;;;;;;;;;4984719;28;20120;-69
2021/10/01 10:36:27;;;;;;;11.43;3.40;;;;;;;;;;4975719;28;20027;-69
2021/10/01 10:38:53;;;;;;;11.65;3.47;;;;;;;;;;4970062;28;20405;-68
2021/10/01 10:41:23;;;;;;;10.23;3.58;;;;;;;;;;4971219;28;20019;-69
2021/10/01 10:43:49;;;;;;;7.95;3.20;;;;;;;;;;4971472;28;20033;-69
2021/10/01 10:46:34;;;;;;;17.85;3.22;;;;;;;;;;4964056;28;20023;-69
2021/10/01 10:49:22;;;;;;;9.85;2.90;;;;;;;;;;4969966;28;20475;-69
2021/10/01 10:52:08;;;;;;;14.50;3.03;;;;;;;;;;4967631;28;20034;-70
2021/10/01 10:54:35;;;;;;;9.50;2.65;;;;;;;;;;4968512;28;20105;-69
2021/10/01 10:57:28;;;;;;;9.30;2.85;;;;;;;;;;4972911;28;20062;-69
2021/10/01 11:00:14;;;;;;;14.70;3.17;;;;;;;;;;4967795;28;20062;-69
2021/10/01 11:02:46;;;;;;;11.90;2.80;;;;;;;;;;4971199;28;20069;-69
2021/10/01 11:05:22;;;;;;;10.40;3.00;;;;;;;;;;4969977;28;20784;-68
2021/10/01 11:07:48;;;;;;;8.02;2.70;;;;;;;;;;4973270;28;20405;-69
2021/10/01 11:10:33;;;;;;;11.10;2.53;;;;;;;;;;4975845;28;20106;-69
2021/10/01 11:13:18;;;;;;;16.27;3.00;;;;;;;;;;4978832;28;20050;-68
2021/10/01 11:16:04;;;;;;;8.77;2.67;;;;;;;;;;4968306;28;20035;-68
2021/10/01 11:18:30;;;;;;;8.75;2.80;;;;;;;;;;4964604;28;20035;-69
2021/10/01 11:20:56;;;;;;;6.35;2.08;;;;;;;;;;4978035;28;20440;-68
2021/10/01 11:23:22;;;;;;;13.15;3.58;;;;;;;;;;4979628;28;20118;-69
2021/10/01 11:25:49;;;;;;;10.55;2.92;;;;;;;;;;4968939;28;20055;-69
2021/10/01 11:28:15;;;;;;;6.72;2.42;;;;;;;;;;4970478;28;20034;-68
2021/10/01 11:30:42;;;;;;;11.48;3.08;;;;;;;;;;4968587;28;20118;-69
2021/10/01 11:33:09;;;;;;;12.32;2.70;;;;;;;;;;4972340;28;20042;-68
2021/10/01 11:35:44;;;;;;;9.57;2.67;;;;;;;;;;4987552;28;20028;-69
2021/10/01 11:38:18;;;;;;;14.85;3.55;;;;;;;;;;4967951;28;20038;-69
2021/10/01 11:40:44;;;;;;;9.23;2.30;;;;;;;;;;4970814;28;20131;-69
2021/10/01 11:43:10;;;;;;;6.85;2.65;;;;;;;;;;4969252;28;20034;-69
2021/10/01 11:45:37;;;;;;;11.27;2.58;;;;;;;;;;4968834;28;20031;-69
2021/10/01 11:48:05;;;;;;;11.15;2.47;;;;;;;;;;4973773;28;20027;-69
2021/10/01 11:50:32;;;;;;;9.00;2.30;;;;;;;;;;4972565;28;20050;-69
2021/10/01 11:52:59;;;;;;;7.85;2.30;;;;;;;;;;4973241;28;20042;-69
2021/10/01 11:55:35;;;;;;;8.93;2.50;;;;;;;;;;4971677;28;20030;-69
2021/10/01 11:58:15;;;;;;;12.32;2.50;;;;;;;;;;4973915;28;20494;-69
2021/10/01 12:00:41;;;;;;;10.48;2.45;;;;;;;;;;4971006;28;20058;-68
2021/10/01 12:03:11;;;;;;;8.15;2.45;;;;;;;;;;4973525;28;20023;-68
2021/10/01 12:05:38;;;;;;;10.60;2.70;;;;;;;;;;4970915;28;20033;-68
2021/10/01 12:08:04;;;;;;;12.18;2.90;;;;;;;;;;4982177;28;20053;-71
2021/10/01 12:10:32;;;;;;;10.30;2.67;;;;;;;;;;4973349;28;20090;-69
2021/10/01 12:13:18;;;;;;;8.73;2.40;;;;;;;;;;4982027;28;20105;-68
2021/10/01 12:15:49;;;;;;;8.48;2.90;;;;;;;;;;4971544;28;20035;-70
2021/10/01 12:18:34;;;;;;;9.18;2.90;;;;;;;;;;4973234;28;20031;-71
2021/10/01 12:21:14;;;;;;;13.38;3.38;;;;;;;;;;4971404;28;20069;-72
2021/10/01 12:23:40;;;;;;;13.82;3.40;;;;;;;;;;4974733;28;20392;-74
2021/10/01 12:26:21;;;;;;;11.85;3.70;;;;;;;;;;4972470;28;20039;-73
2021/10/01 12:29:14;;;;;;;11.95;3.83;;;;;;;;;;4973739;28;20075;-73
2021/10/01 12:31:45;;;;;;;12.50;3.83;;;;;;;;;;4973714;28;20418;-74
2021/10/01 12:34:35;;;;;;;17.58;4.97;;;;;;;;;;4979349;28;20039;-74
2021/10/01 12:37:04;;;;;;;9.32;3.88;;;;;;;;;;4968137;28;20133;-75
2021/10/01 12:39:31;;;;;;;17.10;4.43;;;;;;;;;;4970939;28;20034;-77
2021/10/01 12:41:58;;;;;;;23.58;4.88;;;;;;;;;;4973934;28;20164;-78
2021/10/01 12:44:25;;;;;;;11.85;3.70;;;;;;;;;;4969967;28;20026;-81
2021/10/01 12:46:52;;;;;;;15.43;3.83;;;;;;;;;;4988306;28;20408;-78
2021/10/01 12:49:25;;;;;;;11.45;4.15;;;;;;;;;;4979650;28;20026;-82
2021/10/01 12:52:12;;;;;;;13.50;5.50;;;;;;;;;;4973166;28;20102;-77
2021/10/01 12:54:41;;;;;;;11.65;4.00;;;;;;;;;;4971265;28;20371;-77
2021/10/01 12:57:10;;;;;;;14.10;3.83;;;;;;;;;;4972067;28;20035;-78
2021/10/01 12:59:37;;;;;;;15.18;4.25;;;;;;;;;;4972804;28;20428;-76
2021/10/01 13:02:07;;;;;;;12.23;4.35;;;;;;;;;;4973209;28;20489;-77
2021/10/01 13:04:44;;;;;;;15.98;4.55;;;;;;;;;;4982840;28;20038;-79
2021/10/01 13:07:21;;;;;;;10.52;3.88;;;;;;;;;;4975406;28;20592;-78
2021/10/01 13:09:47;;;;;;;11.95;4.88;;;;;;;;;;4975909;28;20039;-78
2021/10/01 13:12:40;;;;;;;9.45;3.83;;;;;;;;;;4974828;28;20038;-79
2021/10/01 13:15:25;;;;;;;11.90;4.22;;;;;;;;;;4967608;28;20521;-79
2021/10/01 13:18:03;;;;;;;11.65;4.53;;;;;;;;;;4972564;28;20027;-85
2021/10/01 13:20:29;;;;;;;13.02;4.35;;;;;;;;;;4973664;28;20037;-81
2021/10/01 13:23:02;;;;;;;13.13;4.60;;;;;;;;;;4973913;28;20085;-79
2021/10/01 13:25:30;;;;;;;12.80;5.43;;;;;;;;;;4979253;28;20113;-81
2021/10/01 13:27:57;;;;;;;14.75;5.03;;;;;;;;;;4970261;28;20027;-80
2021/10/01 13:30:23;;;;;;;13.63;6.45;;;;;;;;;;4974058;28;20026;-82
2021/10/01 13:32:49;;;;;;;14.88;4.20;;;;;;;;;;4974605;28;20031;-83
2021/10/01 13:35:16;;;;;;;18.38;6.18;;;;;;;;;;4966795;28;20081;-86
2021/10/01 13:37:46;;;;;;;18.25;4.85;;;;;;;;;;4969003;28;20336;-81
2021/10/01 13:40:12;;;;;;;16.52;4.75;;;;;;;;;;4974958;28;20113;-80
2021/10/01 13:42:38;;;;;;;21.83;6.57;;;;;;;;;;4987335;28;20054;-79
2021/10/01 13:45:05;;;;;;;18.23;5.60;;;;;;;;;;4970536;28;20037;-83
2021/10/01 13:47:31;;;;;;;14.63;6.40;;;;;;;;;;4981507;28;20035;-78
2021/10/01 13:49:58;;;;;;;18.85;5.30;;;;;;;;;;4972536;28;20158;-81
2021/10/01 13:52:24;;;;;;;18.65;5.55;;;;;;;;;;4973459;28;20030;-78
2021/10/01 13:54:50;;;;;;;20.35;6.10;;;;;;;;;;4970817;28;20576;-80
2021/10/01 13:57:16;;;;;;;15.15;6.47;;;;;;;;;;4992071;28;20492;-79
2021/10/01 13:59:42;;;;;;;16.52;6.47;;;;;;;;;;4978109;28;20401;-80
2021/10/01 14:02:09;;;;;;;20.05;6.63;;;;;;;;;;4972082;28;20039;-80
2021/10/01 14:04:35;;;;;;;16.10;6.70;;;;;;;;;;4970930;28;20579;-84
2021/10/01 14:07:01;;;;;;;16.08;6.40;;;;;;;;;;4972705;28;20077;-78
2021/10/01 14:09:27;;;;;;;13.60;6.10;;;;;;;;;;4979645;28;20062;-81
2021/10/01 14:11:53;;;;;;;16.73;6.45;;;;;;;;;;4972474;28;20081;-79
2021/10/01 14:14:19;;;;;;;13.23;6.00;;;;;;;;;;4974257;28;20282;-80
2021/10/01 14:16:45;;;;;;;13.45;6.20;;;;;;;;;;4982963;28;20461;-80
2021/10/01 14:19:12;;;;;;;24.55;6.88;;;;;;;;;;4973439;28;20724;-79
2021/10/01 14:21:38;;;;;;;17.58;6.68;;;;;;;;;;4986357;28;20025;-79
2021/10/01 14:24:04;;;;;;;16.50;6.70;;;;;;;;;;4981299;28;20033;-81
2021/10/01 14:26:30;;;;;;;21.10;7.03;;;;;;;;;;4979385;28;20047;-79
2021/10/01 14:28:57;;;;;;;14.55;7.07;;;;;;;;;;4970337;28;20035;-78
2021/10/01 14:31:23;;;;;;;13.95;6.70;;;;;;;;;;4980600;28;20023;-77
2021/10/01 14:33:49;;;;;;;20.00;6.25;;;;;;;;;;4972123;28;20030;-78
2021/10/01 14:36:16;;;;;;;13.60;6.75;;;;;;;;;;4962685;28;20030;-78
2021/10/01 14:38:42;;;;;;;22.00;7.07;;;;;;;;;;4972172;28;20515;-78
2021/10/01 14:41:08;;;;;;;19.73;6.97;;;;;;;;;;4970279;28;20031;-77
2021/10/01 14:43:36;;;;;;;18.33;7.25;;;;;;;;;;4976523;28;20464;-76
2021/10/01 14:46:03;;;;;;;18.25;7.30;;;;;;;;;;4962959;28;20163;-76
2021/10/01 14:48:31;;;;;;;20.00;7.68;;;;;;;;;;4971754;28;20023;-79
2021/10/01 14:50:57;;;;;;;17.27;6.97;;;;;;;;;;4982361;28;20089;-77
2021/10/01 14:53:23;;;;;;;18.77;7.30;;;;;;;;;;4966891;28;20069;-77
2021/10/01 14:55:49;;;;;;;14.55;7.00;;;;;;;;;;4963875;28;20031;-78
2021/10/01 14:58:18;;;;;;;15.20;7.25;;;;;;;;;;4970354;28;20034;-78
2021/10/01 15:00:46;;;;;;;15.55;6.82;;;;;;;;;;4969816;28;20029;-79
2021/10/01 15:03:12;;;;;;;14.98;6.93;;;;;;;;;;4971152;28;20531;-80
2021/10/01 15:05:38;;;;;;;18.15;7.57;;;;;;;;;;4964637;28;20027;-77
2021/10/01 15:08:05;;;;;;;12.70;6.95;;;;;;;;;;4971396;28;20023;-77
2021/10/01 15:10:31;;;;;;;15.38;7.70;;;;;;;;;;4967682;28;20061;-75
2021/10/01 15:12:57;;;;;;;14.90;7.78;;;;;;;;;;4976260;28;20058;-77
2021/10/01 15:15:26;;;;;;;19.75;8.35;;;;;;;;;;4967410;28;20022;-76
2021/10/01 15:17:52;;;;;;;18.20;7.05;;;;;;;;;;4970373;28;21351;-76
2021/10/01 15:20:18;;;;;;;19.83;7.65;;;;;;;;;;4968628;28;20023;-77
2021/10/01 15:22:45;;;;;;;16.65;7.93;;;;;;;;;;4969407;28;20034;-77
2021/10/01 15:25:11;;;;;;;18.65;7.82;;;;;;;;;;4960205;28;20065;-77
2021/10/01 15:30:08;;;;;;;17.98;8.00;;;;;;;;;;4928989;29;20032;-76
2021/10/01 15:32:35;;;;;;;15.10;8.75;;;;;;;;;;4926762;29;20028;-77
2021/10/01 15:35:01;;;;;;;18.52;8.50;;;;;;;;;;4926527;29;20172;-76
2021/10/01 15:37:30;;;;;;;14.95;7.80;;;;;;;;;;4927957;29;20039;-77
2021/10/01 15:39:56;;;;;;;16.38;9.07;;;;;;;;;;4931002;29;20035;-76
2021/10/01 15:42:22;;;;;;;15.45;8.23;;;;;;;;;;4930799;29;20031;-76
2021/10/01 15:44:48;;;;;;;16.73;8.52;;;;;;;;;;4936434;29;20031;-77
2021/10/01 15:47:14;;;;;;;21.95;8.45;;;;;;;;;;4930481;29;20031;-76
2021/10/01 15:49:40;;;;;;;15.23;8.77;;;;;;;;;;4932909;29;20054;-76
2021/10/01 15:52:07;;;;;;;17.92;8.95;;;;;;;;;;4930097;29;20070;-76
2021/10/01 15:54:33;;;;;;;18.83;9.15;;;;;;;;;;4928525;29;20024;-77
2021/10/01 15:56:59;;;;;;;16.38;7.90;;;;;;;;;;4937701;29;20087;-76
2021/10/01 15:59:25;;;;;;;18.80;9.07;;;;;;;;;;4931149;29;20032;-75
2021/10/01 16:01:51;;;;;;;18.05;8.98;;;;;;;;;;4928453;29;20045;-75
2021/10/01 16:04:17;;;;;;;16.70;8.82;;;;;;;;;;4928730;29;20041;-75
2021/10/01 16:06:43;;;;;;;18.02;8.82;;;;;;;;;;4937996;29;20051;-75
2021/10/01 16:09:09;;;;;;;12.90;8.38;;;;;;;;;;4943525;28;20042;-76
2021/10/01 16:11:35;;;;;;;18.42;9.55;;;;;;;;;;4929566;29;20031;-75
2021/10/01 16:14:01;;;;;;;17.25;9.15;;;;;;;;;;4928135;29;20099;-75
2021/10/01 16:16:27;;;;;;;16.67;8.93;;;;;;;;;;4926920;29;20032;-75